sensor_id;sensor_type;location;lat;lon;timestamp;temperature;humidity
42683;DHT22;28293;50.930;3.464;2024-03-25T00:00:13;5.70;89.60
42683;DHT22;28293;50.930;3.464;2024-03-25T00:02:39;5.70;89.70
42683;DHT22;28293;50.930;3.464;2024-03-25T00:05:06;5.70;89.70
42683;DHT22;28293;50.930;3.464;2024-03-25T00:07:39;5.60;89.80
42683;DHT22;28293;50.930;3.464;2024-03-25T00:10:05;5.60;89.90
42683;DHT22;28293;50.930;3.464;2024-03-25T00:12:34;5.60;89.90
42683;DHT22;28293;50.930;3.464;2024-03-25T00:15:00;5.60;89.90
42683;DHT22;28293;50.930;3.464;2024-03-25T00:17:26;5.50;89.90
42683;DHT22;28293;50.930;3.464;2024-03-25T00:19:52;5.50;89.90
42683;DHT22;28293;50.930;3.464;2024-03-25T00:22:19;5.40;89.80
42683;DHT22;28293;50.930;3.464;2024-03-25T00:24:45;5.30;89.90
42683;DHT22;28293;50.930;3.464;2024-03-25T00:27:12;5.20;90.00
42683;DHT22;28293;50.930;3.464;2024-03-25T00:29:37;5.30;90.10
42683;DHT22;28293;50.930;3.464;2024-03-25T00:32:04;5.20;90.20
42683;DHT22;28293;50.930;3.464;2024-03-25T00:34:30;5.20;90.20
42683;DHT22;28293;50.930;3.464;2024-03-25T00:36:55;5.10;90.30
42683;DHT22;28293;50.930;3.464;2024-03-25T00:39:21;5.10;90.40
42683;DHT22;28293;50.930;3.464;2024-03-25T00:41:47;5.10;90.50
42683;DHT22;28293;50.930;3.464;2024-03-25T00:44:13;5.10;90.50
42683;DHT22;28293;50.930;3.464;2024-03-25T00:46:38;5.10;90.50
42683;DHT22;28293;50.930;3.464;2024-03-25T00:49:10;5.00;90.50
42683;DHT22;28293;50.930;3.464;2024-03-25T00:51:36;5.00;90.50
42683;DHT22;28293;50.930;3.464;2024-03-25T00:54:01;5.00;90.60
42683;DHT22;28293;50.930;3.464;2024-03-25T00:56:28;4.90;90.70
42683;DHT22;28293;50.930;3.464;2024-03-25T00:58:54;4.90;90.70
42683;DHT22;28293;50.930;3.464;2024-03-25T01:01:21;4.90;90.80
42683;DHT22;28293;50.930;3.464;2024-03-25T01:03:46;4.90;90.90
42683;DHT22;28293;50.930;3.464;2024-03-25T01:06:13;4.90;91.00
42683;DHT22;28293;50.930;3.464;2024-03-25T01:08:39;4.80;91.00
42683;DHT22;28293;50.930;3.464;2024-03-25T01:11:04;4.80;91.10
42683;DHT22;28293;50.930;3.464;2024-03-25T01:13:30;4.80;91.20
42683;DHT22;28293;50.930;3.464;2024-03-25T01:15:55;4.90;91.40
42683;DHT22;28293;50.930;3.464;2024-03-25T01:18:21;4.90;91.50
42683;DHT22;28293;50.930;3.464;2024-03-25T01:20:47;4.90;91.60
42683;DHT22;28293;50.930;3.464;2024-03-25T01:23:12;4.90;91.70
42683;DHT22;28293;50.930;3.464;2024-03-25T01:25:38;4.90;91.70
42683;DHT22;28293;50.930;3.464;2024-03-25T01:28:03;4.90;91.80
42683;DHT22;28293;50.930;3.464;2024-03-25T01:30:29;4.90;91.80
42683;DHT22;28293;50.930;3.464;2024-03-25T01:32:55;4.90;91.90
42683;DHT22;28293;50.930;3.464;2024-03-25T01:35:20;4.90;91.90
42683;DHT22;28293;50.930;3.464;2024-03-25T01:37:46;4.90;92.00
42683;DHT22;28293;50.930;3.464;2024-03-25T01:40:12;4.90;92.00
42683;DHT22;28293;50.930;3.464;2024-03-25T01:42:38;4.80;92.00
42683;DHT22;28293;50.930;3.464;2024-03-25T01:45:04;4.80;92.00
42683;DHT22;28293;50.930;3.464;2024-03-25T01:47:32;4.80;92.00
42683;DHT22;28293;50.930;3.464;2024-03-25T01:50:01;4.80;92.00
42683;DHT22;28293;50.930;3.464;2024-03-25T01:52:29;4.80;92.20
42683;DHT22;28293;50.930;3.464;2024-03-25T01:54:55;4.80;92.20
42683;DHT22;28293;50.930;3.464;2024-03-25T01:57:21;4.80;92.30
42683;DHT22;28293;50.930;3.464;2024-03-25T01:59:47;4.80;92.40
42683;DHT22;28293;50.930;3.464;2024-03-25T02:02:13;4.80;92.40
42683;DHT22;28293;50.930;3.464;2024-03-25T02:04:42;4.80;92.50
42683;DHT22;28293;50.930;3.464;2024-03-25T02:07:08;4.80;92.50
42683;DHT22;28293;50.930;3.464;2024-03-25T02:09:36;4.80;92.60
42683;DHT22;28293;50.930;3.464;2024-03-25T02:12:02;4.80;92.60
42683;DHT22;28293;50.930;3.464;2024-03-25T02:14:28;4.80;92.70
42683;DHT22;28293;50.930;3.464;2024-03-25T02:16:53;4.80;92.80
42683;DHT22;28293;50.930;3.464;2024-03-25T02:19:21;4.80;92.80
42683;DHT22;28293;50.930;3.464;2024-03-25T02:21:47;4.70;92.80
42683;DHT22;28293;50.930;3.464;2024-03-25T02:24:14;4.70;92.80
42683;DHT22;28293;50.930;3.464;2024-03-25T02:26:41;4.70;92.90
42683;DHT22;28293;50.930;3.464;2024-03-25T02:29:09;4.60;92.90
42683;DHT22;28293;50.930;3.464;2024-03-25T02:31:35;4.50;92.90
42683;DHT22;28293;50.930;3.464;2024-03-25T02:34:00;4.50;93.00
42683;DHT22;28293;50.930;3.464;2024-03-25T02:36:26;4.50;93.10
42683;DHT22;28293;50.930;3.464;2024-03-25T02:38:52;4.50;93.10
42683;DHT22;28293;50.930;3.464;2024-03-25T02:41:18;4.50;93.10
42683;DHT22;28293;50.930;3.464;2024-03-25T02:43:44;4.40;93.20
42683;DHT22;28293;50.930;3.464;2024-03-25T02:46:09;4.40;93.20
42683;DHT22;28293;50.930;3.464;2024-03-25T02:48:35;4.30;93.20
42683;DHT22;28293;50.930;3.464;2024-03-25T02:51:01;4.30;93.20
42683;DHT22;28293;50.930;3.464;2024-03-25T02:53:26;4.20;93.30
42683;DHT22;28293;50.930;3.464;2024-03-25T02:55:52;4.20;93.30
42683;DHT22;28293;50.930;3.464;2024-03-25T02:58:17;4.20;93.20
42683;DHT22;28293;50.930;3.464;2024-03-25T03:00:43;4.20;93.20
42683;DHT22;28293;50.930;3.464;2024-03-25T03:03:09;4.20;93.20
42683;DHT22;28293;50.930;3.464;2024-03-25T03:05:34;4.10;93.30
42683;DHT22;28293;50.930;3.464;2024-03-25T03:08:00;4.10;93.30
42683;DHT22;28293;50.930;3.464;2024-03-25T03:10:26;4.10;93.30
42683;DHT22;28293;50.930;3.464;2024-03-25T03:12:51;4.10;93.30
42683;DHT22;28293;50.930;3.464;2024-03-25T03:15:17;4.10;93.20
42683;DHT22;28293;50.930;3.464;2024-03-25T03:17:43;4.10;93.30
42683;DHT22;28293;50.930;3.464;2024-03-25T03:20:09;4.00;93.30
42683;DHT22;28293;50.930;3.464;2024-03-25T03:22:35;4.00;93.40
42683;DHT22;28293;50.930;3.464;2024-03-25T03:25:01;4.00;93.50
42683;DHT22;28293;50.930;3.464;2024-03-25T03:27:26;3.90;93.60
42683;DHT22;28293;50.930;3.464;2024-03-25T03:29:52;3.90;93.60
42683;DHT22;28293;50.930;3.464;2024-03-25T03:32:18;3.90;93.60
42683;DHT22;28293;50.930;3.464;2024-03-25T03:34:44;4.00;93.70
42683;DHT22;28293;50.930;3.464;2024-03-25T03:37:09;3.90;93.70
42683;DHT22;28293;50.930;3.464;2024-03-25T03:39:35;3.90;93.70
42683;DHT22;28293;50.930;3.464;2024-03-25T03:42:01;3.90;93.70
42683;DHT22;28293;50.930;3.464;2024-03-25T03:44:26;3.80;93.70
42683;DHT22;28293;50.930;3.464;2024-03-25T03:46:52;3.80;93.70
42683;DHT22;28293;50.930;3.464;2024-03-25T03:49:18;3.80;93.80
42683;DHT22;28293;50.930;3.464;2024-03-25T03:51:43;3.80;93.80
42683;DHT22;28293;50.930;3.464;2024-03-25T03:54:09;3.80;93.80
42683;DHT22;28293;50.930;3.464;2024-03-25T03:56:34;3.80;93.90
42683;DHT22;28293;50.930;3.464;2024-03-25T03:59:00;3.80;93.90
42683;DHT22;28293;50.930;3.464;2024-03-25T04:01:26;3.80;94.00
42683;DHT22;28293;50.930;3.464;2024-03-25T04:03:51;3.90;94.00
42683;DHT22;28293;50.930;3.464;2024-03-25T04:06:17;3.80;94.00
42683;DHT22;28293;50.930;3.464;2024-03-25T04:08:43;3.80;94.00
42683;DHT22;28293;50.930;3.464;2024-03-25T04:11:08;3.80;94.00
42683;DHT22;28293;50.930;3.464;2024-03-25T04:13:35;3.90;94.00
42683;DHT22;28293;50.930;3.464;2024-03-25T04:16:02;3.90;94.10
42683;DHT22;28293;50.930;3.464;2024-03-25T04:18:29;3.90;94.10
42683;DHT22;28293;50.930;3.464;2024-03-25T04:20:55;3.80;94.10
42683;DHT22;28293;50.930;3.464;2024-03-25T04:23:21;3.80;94.20
42683;DHT22;28293;50.930;3.464;2024-03-25T04:25:47;3.80;94.20
42683;DHT22;28293;50.930;3.464;2024-03-25T04:28:13;3.80;94.30
42683;DHT22;28293;50.930;3.464;2024-03-25T04:30:39;3.80;94.30
42683;DHT22;28293;50.930;3.464;2024-03-25T04:33:04;3.90;94.30
42683;DHT22;28293;50.930;3.464;2024-03-25T04:35:30;3.90;94.30
42683;DHT22;28293;50.930;3.464;2024-03-25T04:37:55;3.90;94.40
42683;DHT22;28293;50.930;3.464;2024-03-25T04:40:21;3.80;94.50
42683;DHT22;28293;50.930;3.464;2024-03-25T04:42:47;3.90;94.50
42683;DHT22;28293;50.930;3.464;2024-03-25T04:45:13;3.90;94.50
42683;DHT22;28293;50.930;3.464;2024-03-25T04:47:39;3.90;94.60
42683;DHT22;28293;50.930;3.464;2024-03-25T04:50:05;3.90;94.60
42683;DHT22;28293;50.930;3.464;2024-03-25T04:52:31;3.90;94.70
42683;DHT22;28293;50.930;3.464;2024-03-25T04:54:57;4.00;94.70
42683;DHT22;28293;50.930;3.464;2024-03-25T04:57:23;4.00;94.80
42683;DHT22;28293;50.930;3.464;2024-03-25T04:59:48;4.10;94.90
42683;DHT22;28293;50.930;3.464;2024-03-25T05:02:14;4.10;94.90
42683;DHT22;28293;50.930;3.464;2024-03-25T05:04:40;4.10;95.00
42683;DHT22;28293;50.930;3.464;2024-03-25T05:07:06;4.20;95.10
42683;DHT22;28293;50.930;3.464;2024-03-25T05:09:31;4.30;95.20
42683;DHT22;28293;50.930;3.464;2024-03-25T05:11:57;4.50;95.40
42683;DHT22;28293;50.930;3.464;2024-03-25T05:14:23;4.50;95.40
42683;DHT22;28293;50.930;3.464;2024-03-25T05:16:48;4.60;95.40
42683;DHT22;28293;50.930;3.464;2024-03-25T05:19:15;4.70;95.50
42683;DHT22;28293;50.930;3.464;2024-03-25T05:21:41;4.80;95.50
42683;DHT22;28293;50.930;3.464;2024-03-25T05:24:07;4.90;95.70
42683;DHT22;28293;50.930;3.464;2024-03-25T05:26:32;5.00;95.70
42683;DHT22;28293;50.930;3.464;2024-03-25T05:28:58;5.10;95.80
42683;DHT22;28293;50.930;3.464;2024-03-25T05:31:24;5.10;95.80
42683;DHT22;28293;50.930;3.464;2024-03-25T05:33:50;5.10;95.80
42683;DHT22;28293;50.930;3.464;2024-03-25T05:36:15;5.10;95.80
42683;DHT22;28293;50.930;3.464;2024-03-25T05:38:41;5.20;95.80
42683;DHT22;28293;50.930;3.464;2024-03-25T05:41:10;5.20;95.90
42683;DHT22;28293;50.930;3.464;2024-03-25T05:43:36;5.30;96.00
42683;DHT22;28293;50.930;3.464;2024-03-25T05:46:04;5.30;96.10
42683;DHT22;28293;50.930;3.464;2024-03-25T05:48:30;5.40;96.20
42683;DHT22;28293;50.930;3.464;2024-03-25T05:53:29;5.50;96.30
42683;DHT22;28293;50.930;3.464;2024-03-25T05:55:55;5.50;96.40
42683;DHT22;28293;50.930;3.464;2024-03-25T05:58:21;5.60;96.40
42683;DHT22;28293;50.930;3.464;2024-03-25T06:00:48;5.60;96.40
42683;DHT22;28293;50.930;3.464;2024-03-25T06:03:14;5.70;96.50
42683;DHT22;28293;50.930;3.464;2024-03-25T06:05:40;5.70;96.50
42683;DHT22;28293;50.930;3.464;2024-03-25T06:08:06;5.80;96.50
42683;DHT22;28293;50.930;3.464;2024-03-25T06:10:39;5.80;96.50
42683;DHT22;28293;50.930;3.464;2024-03-25T06:13:05;5.80;96.50
42683;DHT22;28293;50.930;3.464;2024-03-25T06:15:30;5.90;96.50
42683;DHT22;28293;50.930;3.464;2024-03-25T06:17:56;5.90;96.50
42683;DHT22;28293;50.930;3.464;2024-03-25T06:20:21;5.90;96.50
42683;DHT22;28293;50.930;3.464;2024-03-25T06:22:47;5.90;96.50
42683;DHT22;28293;50.930;3.464;2024-03-25T06:25:13;6.00;96.50
42683;DHT22;28293;50.930;3.464;2024-03-25T06:27:38;6.00;96.50
42683;DHT22;28293;50.930;3.464;2024-03-25T06:30:04;6.00;96.50
42683;DHT22;28293;50.930;3.464;2024-03-25T06:32:48;6.10;96.50
42683;DHT22;28293;50.930;3.464;2024-03-25T06:35:33;6.10;96.50
42683;DHT22;28293;50.930;3.464;2024-03-25T06:37:58;6.10;96.50
42683;DHT22;28293;50.930;3.464;2024-03-25T06:40:24;6.10;96.50
42683;DHT22;28293;50.930;3.464;2024-03-25T06:42:50;6.20;96.50
42683;DHT22;28293;50.930;3.464;2024-03-25T06:45:16;6.30;96.50
42683;DHT22;28293;50.930;3.464;2024-03-25T06:47:42;6.30;96.30
42683;DHT22;28293;50.930;3.464;2024-03-25T06:50:08;6.40;96.30
42683;DHT22;28293;50.930;3.464;2024-03-25T06:52:34;6.40;96.20
42683;DHT22;28293;50.930;3.464;2024-03-25T06:54:59;6.40;96.20
42683;DHT22;28293;50.930;3.464;2024-03-25T06:57:25;6.50;96.10
42683;DHT22;28293;50.930;3.464;2024-03-25T06:59:51;6.50;96.00
42683;DHT22;28293;50.930;3.464;2024-03-25T07:02:17;6.50;96.00
42683;DHT22;28293;50.930;3.464;2024-03-25T07:04:42;6.60;96.00
42683;DHT22;28293;50.930;3.464;2024-03-25T07:07:08;6.60;95.90
42683;DHT22;28293;50.930;3.464;2024-03-25T07:09:34;6.70;95.80
42683;DHT22;28293;50.930;3.464;2024-03-25T07:11:59;6.80;95.90
42683;DHT22;28293;50.930;3.464;2024-03-25T07:14:25;6.90;95.70
42683;DHT22;28293;50.930;3.464;2024-03-25T07:16:51;6.90;95.50
42683;DHT22;28293;50.930;3.464;2024-03-25T07:19:16;6.90;95.40
42683;DHT22;28293;50.930;3.464;2024-03-25T07:21:42;7.10;95.50
42683;DHT22;28293;50.930;3.464;2024-03-25T07:24:07;7.20;95.40
42683;DHT22;28293;50.930;3.464;2024-03-25T07:26:33;7.20;95.10
42683;DHT22;28293;50.930;3.464;2024-03-25T07:28:58;7.30;94.90
42683;DHT22;28293;50.930;3.464;2024-03-25T07:31:24;7.30;94.80
42683;DHT22;28293;50.930;3.464;2024-03-25T07:33:51;7.40;94.60
42683;DHT22;28293;50.930;3.464;2024-03-25T07:36:16;7.40;94.50
42683;DHT22;28293;50.930;3.464;2024-03-25T07:38:44;7.50;94.50
42683;DHT22;28293;50.930;3.464;2024-03-25T07:41:09;7.40;94.30
42683;DHT22;28293;50.930;3.464;2024-03-25T07:43:35;7.50;94.40
42683;DHT22;28293;50.930;3.464;2024-03-25T07:46:00;7.60;94.40
42683;DHT22;28293;50.930;3.464;2024-03-25T07:48:26;7.70;94.20
42683;DHT22;28293;50.930;3.464;2024-03-25T07:50:52;7.70;94.00
42683;DHT22;28293;50.930;3.464;2024-03-25T07:53:17;7.80;93.80
42683;DHT22;28293;50.930;3.464;2024-03-25T07:55:43;7.80;93.50
42683;DHT22;28293;50.930;3.464;2024-03-25T07:58:08;7.90;93.30
42683;DHT22;28293;50.930;3.464;2024-03-25T08:00:34;7.90;93.20
42683;DHT22;28293;50.930;3.464;2024-03-25T08:03:00;8.00;93.20
42683;DHT22;28293;50.930;3.464;2024-03-25T08:05:26;8.00;92.60
42683;DHT22;28293;50.930;3.464;2024-03-25T08:07:52;8.10;92.40
42683;DHT22;28293;50.930;3.464;2024-03-25T08:10:18;8.10;92.30
42683;DHT22;28293;50.930;3.464;2024-03-25T08:12:43;8.10;92.30
42683;DHT22;28293;50.930;3.464;2024-03-25T08:15:09;8.20;92.00
42683;DHT22;28293;50.930;3.464;2024-03-25T08:17:35;8.20;91.80
42683;DHT22;28293;50.930;3.464;2024-03-25T08:20:00;8.40;92.30
42683;DHT22;28293;50.930;3.464;2024-03-25T08:22:26;8.60;91.70
42683;DHT22;28293;50.930;3.464;2024-03-25T08:24:51;8.80;90.90
42683;DHT22;28293;50.930;3.464;2024-03-25T08:27:17;8.90;90.10
42683;DHT22;28293;50.930;3.464;2024-03-25T08:29:43;9.10;89.70
42683;DHT22;28293;50.930;3.464;2024-03-25T08:32:08;9.10;89.60
42683;DHT22;28293;50.930;3.464;2024-03-25T08:34:34;9.10;89.20
42683;DHT22;28293;50.930;3.464;2024-03-25T08:37:00;9.10;89.60
42683;DHT22;28293;50.930;3.464;2024-03-25T08:39:25;9.00;89.20
42683;DHT22;28293;50.930;3.464;2024-03-25T08:41:51;9.00;89.40
42683;DHT22;28293;50.930;3.464;2024-03-25T08:44:16;9.00;89.70
42683;DHT22;28293;50.930;3.464;2024-03-25T08:46:42;9.10;90.10
42683;DHT22;28293;50.930;3.464;2024-03-25T08:49:08;9.10;89.70
42683;DHT22;28293;50.930;3.464;2024-03-25T08:51:34;9.30;89.70
42683;DHT22;28293;50.930;3.464;2024-03-25T08:54:00;9.40;89.20
42683;DHT22;28293;50.930;3.464;2024-03-25T08:56:25;9.60;89.10
42683;DHT22;28293;50.930;3.464;2024-03-25T08:58:51;9.70;88.40
42683;DHT22;28293;50.930;3.464;2024-03-25T09:01:21;9.70;87.90
42683;DHT22;28293;50.930;3.464;2024-03-25T09:03:47;9.60;87.40
42683;DHT22;28293;50.930;3.464;2024-03-25T09:06:13;9.60;87.10
42683;DHT22;28293;50.930;3.464;2024-03-25T09:08:39;9.80;87.30
42683;DHT22;28293;50.930;3.464;2024-03-25T09:11:23;9.70;86.90
42683;DHT22;28293;50.930;3.464;2024-03-25T09:13:50;9.70;86.50
42683;DHT22;28293;50.930;3.464;2024-03-25T09:16:16;9.60;86.60
42683;DHT22;28293;50.930;3.464;2024-03-25T09:18:42;9.70;87.40
42683;DHT22;28293;50.930;3.464;2024-03-25T09:21:07;9.80;86.90
42683;DHT22;28293;50.930;3.464;2024-03-25T09:23:33;9.80;86.40
42683;DHT22;28293;50.930;3.464;2024-03-25T09:25:58;9.80;86.20
42683;DHT22;28293;50.930;3.464;2024-03-25T09:28:24;9.70;86.40
42683;DHT22;28293;50.930;3.464;2024-03-25T09:30:50;9.80;86.70
42683;DHT22;28293;50.930;3.464;2024-03-25T09:33:15;9.90;86.40
42683;DHT22;28293;50.930;3.464;2024-03-25T09:35:41;9.80;85.90
42683;DHT22;28293;50.930;3.464;2024-03-25T09:38:07;9.90;85.90
42683;DHT22;28293;50.930;3.464;2024-03-25T09:40:35;9.90;85.60
42683;DHT22;28293;50.930;3.464;2024-03-25T09:43:02;10.00;85.40
42683;DHT22;28293;50.930;3.464;2024-03-25T09:45:29;10.10;85.50
42683;DHT22;28293;50.930;3.464;2024-03-25T09:47:55;9.90;85.10
42683;DHT22;28293;50.930;3.464;2024-03-25T09:50:22;9.80;85.30
42683;DHT22;28293;50.930;3.464;2024-03-25T09:52:48;9.90;85.40
42683;DHT22;28293;50.930;3.464;2024-03-25T09:55:14;10.20;86.00
42683;DHT22;28293;50.930;3.464;2024-03-25T09:57:42;10.60;84.50
42683;DHT22;28293;50.930;3.464;2024-03-25T10:00:08;10.50;82.40
42683;DHT22;28293;50.930;3.464;2024-03-25T10:02:37;10.60;83.40
42683;DHT22;28293;50.930;3.464;2024-03-25T10:05:07;10.80;83.50
42683;DHT22;28293;50.930;3.464;2024-03-25T10:07:34;11.00;82.30
42683;DHT22;28293;50.930;3.464;2024-03-25T10:10:05;11.00;81.60
42683;DHT22;28293;50.930;3.464;2024-03-25T10:12:32;11.30;82.60
42683;DHT22;28293;50.930;3.464;2024-03-25T10:14:58;11.70;81.60
42683;DHT22;28293;50.930;3.464;2024-03-25T10:17:24;11.70;80.20
42683;DHT22;28293;50.930;3.464;2024-03-25T10:19:50;12.00;79.10
42683;DHT22;28293;50.930;3.464;2024-03-25T10:22:16;12.10;77.70
42683;DHT22;28293;50.930;3.464;2024-03-25T10:24:46;12.20;78.40
42683;DHT22;28293;50.930;3.464;2024-03-25T10:27:19;12.10;77.60
42683;DHT22;28293;50.930;3.464;2024-03-25T10:29:53;12.10;78.80
42683;DHT22;28293;50.930;3.464;2024-03-25T10:32:21;12.10;78.40
42683;DHT22;28293;50.930;3.464;2024-03-25T10:34:47;12.10;77.50
42683;DHT22;28293;50.930;3.464;2024-03-25T10:37:13;12.10;77.60
42683;DHT22;28293;50.930;3.464;2024-03-25T10:39:50;11.90;77.30
42683;DHT22;28293;50.930;3.464;2024-03-25T10:42:20;12.10;78.10
42683;DHT22;28293;50.930;3.464;2024-03-25T10:44:47;12.10;77.20
42683;DHT22;28293;50.930;3.464;2024-03-25T10:47:21;12.40;77.40
42683;DHT22;28293;50.930;3.464;2024-03-25T10:49:57;12.40;76.60
42683;DHT22;28293;50.930;3.464;2024-03-25T10:52:24;12.60;76.10
42683;DHT22;28293;50.930;3.464;2024-03-25T10:54:51;12.80;75.10
42683;DHT22;28293;50.930;3.464;2024-03-25T10:57:20;13.00;74.80
42683;DHT22;28293;50.930;3.464;2024-03-25T10:59:46;12.90;73.70
42683;DHT22;28293;50.930;3.464;2024-03-25T11:02:12;13.00;73.60
42683;DHT22;28293;50.930;3.464;2024-03-25T11:04:38;13.10;72.70
42683;DHT22;28293;50.930;3.464;2024-03-25T11:07:09;13.20;72.90
42683;DHT22;28293;50.930;3.464;2024-03-25T11:09:36;13.20;71.10
42683;DHT22;28293;50.930;3.464;2024-03-25T11:12:02;13.10;71.20
42683;DHT22;28293;50.930;3.464;2024-03-25T11:14:28;13.40;71.50
42683;DHT22;28293;50.930;3.464;2024-03-25T11:16:54;13.40;69.40
42683;DHT22;28293;50.930;3.464;2024-03-25T11:19:25;13.50;69.80
42683;DHT22;28293;50.930;3.464;2024-03-25T11:21:51;13.60;69.10
42683;DHT22;28293;50.930;3.464;2024-03-25T11:24:37;13.30;67.80
42683;DHT22;28293;50.930;3.464;2024-03-25T11:27:06;13.30;69.60
42683;DHT22;28293;50.930;3.464;2024-03-25T11:29:32;13.70;68.50
42683;DHT22;28293;50.930;3.464;2024-03-25T11:32:01;13.60;65.60
42683;DHT22;28293;50.930;3.464;2024-03-25T11:34:28;13.60;66.50
42683;DHT22;28293;50.930;3.464;2024-03-25T11:36:54;14.00;66.30
42683;DHT22;28293;50.930;3.464;2024-03-25T11:39:22;13.70;65.80
42683;DHT22;28293;50.930;3.464;2024-03-25T11:41:47;13.30;65.80
42683;DHT22;28293;50.930;3.464;2024-03-25T11:44:13;13.20;66.90
42683;DHT22;28293;50.930;3.464;2024-03-25T11:46:40;13.50;68.00
42683;DHT22;28293;50.930;3.464;2024-03-25T11:49:06;13.80;65.90
42683;DHT22;28293;50.930;3.464;2024-03-25T11:51:35;14.10;66.50
42683;DHT22;28293;50.930;3.464;2024-03-25T11:54:04;14.10;62.00
42683;DHT22;28293;50.930;3.464;2024-03-25T11:56:31;14.50;64.40
42683;DHT22;28293;50.930;3.464;2024-03-25T11:58:58;14.80;62.60
42683;DHT22;28293;50.930;3.464;2024-03-25T12:01:24;15.00;60.40
42683;DHT22;28293;50.930;3.464;2024-03-25T12:03:51;14.90;60.90
42683;DHT22;28293;50.930;3.464;2024-03-25T12:06:16;14.60;60.80
42683;DHT22;28293;50.930;3.464;2024-03-25T12:08:42;14.60;61.20
42683;DHT22;28293;50.930;3.464;2024-03-25T12:11:28;14.60;60.20
42683;DHT22;28293;50.930;3.464;2024-03-25T12:13:53;14.50;59.50
42683;DHT22;28293;50.930;3.464;2024-03-25T12:16:19;14.40;59.90
42683;DHT22;28293;50.930;3.464;2024-03-25T12:18:45;14.30;58.20
42683;DHT22;28293;50.930;3.464;2024-03-25T12:21:11;13.90;58.90
42683;DHT22;28293;50.930;3.464;2024-03-25T12:23:37;13.90;58.50
42683;DHT22;28293;50.930;3.464;2024-03-25T12:26:03;13.80;58.70
42683;DHT22;28293;50.930;3.464;2024-03-25T12:28:32;13.90;58.60
42683;DHT22;28293;50.930;3.464;2024-03-25T12:31:00;14.10;60.30
42683;DHT22;28293;50.930;3.464;2024-03-25T12:33:26;14.10;59.50
42683;DHT22;28293;50.930;3.464;2024-03-25T12:35:52;14.40;59.60
42683;DHT22;28293;50.930;3.464;2024-03-25T12:38:26;14.70;58.10
42683;DHT22;28293;50.930;3.464;2024-03-25T12:40:53;14.90;55.70
42683;DHT22;28293;50.930;3.464;2024-03-25T12:43:18;14.80;55.70
42683;DHT22;28293;50.930;3.464;2024-03-25T12:45:44;15.00;57.00
42683;DHT22;28293;50.930;3.464;2024-03-25T12:48:11;15.30;55.90
42683;DHT22;28293;50.930;3.464;2024-03-25T12:50:37;14.70;55.30
42683;DHT22;28293;50.930;3.464;2024-03-25T12:53:03;14.60;55.90
42683;DHT22;28293;50.930;3.464;2024-03-25T12:55:30;14.60;56.20
42683;DHT22;28293;50.930;3.464;2024-03-25T12:57:55;14.50;56.60
42683;DHT22;28293;50.930;3.464;2024-03-25T13:00:21;14.40;57.50
42683;DHT22;28293;50.930;3.464;2024-03-25T13:02:48;14.10;58.00
42683;DHT22;28293;50.930;3.464;2024-03-25T13:05:14;13.80;58.90
42683;DHT22;28293;50.930;3.464;2024-03-25T13:07:40;13.80;57.30
42683;DHT22;28293;50.930;3.464;2024-03-25T13:10:06;13.80;58.60
42683;DHT22;28293;50.930;3.464;2024-03-25T13:12:32;13.80;59.10
42683;DHT22;28293;50.930;3.464;2024-03-25T13:14:58;13.90;59.90
42683;DHT22;28293;50.930;3.464;2024-03-25T13:17:25;14.10;58.90
42683;DHT22;28293;50.930;3.464;2024-03-25T13:19:50;14.10;59.40
42683;DHT22;28293;50.930;3.464;2024-03-25T13:22:16;13.80;59.30
42683;DHT22;28293;50.930;3.464;2024-03-25T13:24:43;13.60;59.20
42683;DHT22;28293;50.930;3.464;2024-03-25T13:27:09;13.60;60.40
42683;DHT22;28293;50.930;3.464;2024-03-25T13:29:35;13.40;58.90
42683;DHT22;28293;50.930;3.464;2024-03-25T13:32:03;13.40;58.20
42683;DHT22;28293;50.930;3.464;2024-03-25T13:34:29;13.60;57.70
42683;DHT22;28293;50.930;3.464;2024-03-25T13:36:55;14.00;58.30
42683;DHT22;28293;50.930;3.464;2024-03-25T13:39:20;14.20;56.80
42683;DHT22;28293;50.930;3.464;2024-03-25T13:41:46;14.40;55.40
42683;DHT22;28293;50.930;3.464;2024-03-25T13:44:12;14.60;55.90
42683;DHT22;28293;50.930;3.464;2024-03-25T13:46:37;14.70;56.40
42683;DHT22;28293;50.930;3.464;2024-03-25T13:49:03;14.90;55.80
42683;DHT22;28293;50.930;3.464;2024-03-25T13:51:28;14.70;55.10
42683;DHT22;28293;50.930;3.464;2024-03-25T13:53:54;14.40;56.50
42683;DHT22;28293;50.930;3.464;2024-03-25T13:56:20;14.00;56.50
42683;DHT22;28293;50.930;3.464;2024-03-25T13:58:45;13.80;56.20
42683;DHT22;28293;50.930;3.464;2024-03-25T14:01:11;13.90;56.90
42683;DHT22;28293;50.930;3.464;2024-03-25T14:03:36;14.00;57.30
42683;DHT22;28293;50.930;3.464;2024-03-25T14:06:02;14.00;56.70
42683;DHT22;28293;50.930;3.464;2024-03-25T14:08:28;13.90;56.40
42683;DHT22;28293;50.930;3.464;2024-03-25T14:11:01;13.90;57.00
42683;DHT22;28293;50.930;3.464;2024-03-25T14:13:27;14.20;57.70
42683;DHT22;28293;50.930;3.464;2024-03-25T14:15:55;14.20;55.80
42683;DHT22;28293;50.930;3.464;2024-03-25T14:18:20;14.00;53.90
42683;DHT22;28293;50.930;3.464;2024-03-25T14:20:46;14.00;54.10
42683;DHT22;28293;50.930;3.464;2024-03-25T14:23:12;13.80;54.40
42683;DHT22;28293;50.930;3.464;2024-03-25T14:25:38;13.90;53.30
42683;DHT22;28293;50.930;3.464;2024-03-25T14:28:05;14.10;52.90
42683;DHT22;28293;50.930;3.464;2024-03-25T14:30:31;14.10;52.80
42683;DHT22;28293;50.930;3.464;2024-03-25T14:32:57;14.20;54.90
42683;DHT22;28293;50.930;3.464;2024-03-25T14:35:24;14.30;55.00
42683;DHT22;28293;50.930;3.464;2024-03-25T14:37:50;14.20;53.60
42683;DHT22;28293;50.930;3.464;2024-03-25T14:40:16;14.10;53.10
42683;DHT22;28293;50.930;3.464;2024-03-25T14:42:44;14.20;53.90
42683;DHT22;28293;50.930;3.464;2024-03-25T14:45:10;14.40;54.60
42683;DHT22;28293;50.930;3.464;2024-03-25T14:47:36;14.20;54.00
42683;DHT22;28293;50.930;3.464;2024-03-25T14:50:02;14.10;54.20
42683;DHT22;28293;50.930;3.464;2024-03-25T14:52:30;14.10;54.90
42683;DHT22;28293;50.930;3.464;2024-03-25T14:54:56;14.10;53.00
42683;DHT22;28293;50.930;3.464;2024-03-25T14:57:22;13.90;53.80
42683;DHT22;28293;50.930;3.464;2024-03-25T14:59:47;14.00;54.70
42683;DHT22;28293;50.930;3.464;2024-03-25T15:02:13;14.10;54.30
42683;DHT22;28293;50.930;3.464;2024-03-25T15:04:39;14.30;54.30
42683;DHT22;28293;50.930;3.464;2024-03-25T15:07:10;14.30;53.70
42683;DHT22;28293;50.930;3.464;2024-03-25T15:09:36;14.20;52.70
42683;DHT22;28293;50.930;3.464;2024-03-25T15:12:02;14.10;54.00
42683;DHT22;28293;50.930;3.464;2024-03-25T15:14:29;14.10;52.30
42683;DHT22;28293;50.930;3.464;2024-03-25T15:16:56;14.10;52.50
42683;DHT22;28293;50.930;3.464;2024-03-25T15:19:24;14.20;52.90
42683;DHT22;28293;50.930;3.464;2024-03-25T15:21:49;14.10;53.40
42683;DHT22;28293;50.930;3.464;2024-03-25T15:24:15;14.30;54.10
42683;DHT22;28293;50.930;3.464;2024-03-25T15:26:41;14.30;53.60
42683;DHT22;28293;50.930;3.464;2024-03-25T15:29:06;14.30;52.60
42683;DHT22;28293;50.930;3.464;2024-03-25T15:31:32;14.10;53.10
42683;DHT22;28293;50.930;3.464;2024-03-25T15:33:58;14.10;52.80
42683;DHT22;28293;50.930;3.464;2024-03-25T15:36:24;13.90;53.60